West Point, NE

7:24 AM CDT on April 27, 2017 (GMT -0500)
Skywave Wireless, Inc. | | Change Station
Active Advisory: Freeze Warning

Elev 1312 ft 41.84 °N, 96.71 °W | Updated 6 seconds ago

Mostly Cloudy
Mostly Cloudy
34.7 °F
Feels Like 35 °F
N
0.0
Wind Variable Wind from East
Gusts 0.0 mph

Today
High -- | Low -- °F
--% Chance of Precip.
Yesterday
High -- | Low -- °F
Precip. -- in
Pressure 29.69 in
Visibility 10.0 miles
Clouds Overcast 2400 ft
Windchill 35 °F
Dew Point 28 °F
Humidity 76%
Rainfall 0.00 in
Snow Depth Not available.
6:28 AM 8:21 PM
New Moon, 2% visible
METAR KTQE 271154Z AUTO 32010KT 10SM OVC024 02/M02 A2968 RMK AO2 SLP054 T00171022 10033 20006 53008
Pressure 29.69 in
Visibility 10.0 miles
Clouds Overcast 2400 ft
Windchill 35 °F
Dew Point 28 °F
Humidity 76%
Rainfall 0.00 in
Snow Depth Not available.
6:28 AM 8:21 PM
New Moon, 2% visible
METAR KTQE 271154Z AUTO 32010KT 10SM OVC024 02/M02 A2968 RMK AO2 SLP054 T00171022 10033 20006 53008

Get Your Daily Forecast Email!

Thanks for signing up!

Be on the lookout for a verification email in your inbox.

You'll start receiving severe weather alerts in your inbox..

×

10-Day Weather Forecast

Almanac

Astronomy

Apr. 27, 2017 Rise Set
Actual Time
Civil Twilight
Nautical Twilight
Astronomical Twilight
Moon
Length of Visible Light
Length of Day
Tomorrow will be .
, % of the Moon is Illuminated

Today's Extremes

State Highs State Lows

Community

WunderPhotos

WunderBlog® & News

Nearby

Air Quality

  Air Quality AQ Index Pollutant
Not available.

Snow Depth

Station Depth Elevation

Earthquake Activity

City Distance Mag. Time & Date
Minimum magnitude displayed is 2.5.

Coastal Water Temperatures

Place Temperature

Stations

Nearby Weather Stations

Station Location Temp. Windchill Dew Point Humidity Wind Precip. Elev Updated Type
                   

Watches & Warnings

Freeze Warning
Issued: 3:57 AM CDT Apr. 27, 2017 – National Weather Service

... Freeze warning remains in effect until 9 am CDT this morning...

* temperatures... although cloud cover has kept temperatures in
some areas above freezing, clouds continue to clear from west to
east and could allow areas to quickly drop below freezing toward
sunrise.

* Impacts... sensitive outdoor vegetation may be damaged or
killed if left unprotected.

Precautionary/preparedness actions...

A freeze warning means sub-freezing temperatures are imminent or
highly likely. These conditions will kill crops and other
sensitive vegetation.